createdAt,value
2023-02-03T00:03:12.379Z,76.10
2023-02-03T00:07:19.389Z,76.10
2023-02-03T00:11:26.460Z,77.00
2023-02-03T00:15:31.968Z,76.50
2023-02-03T00:19:37.506Z,76.70
2023-02-03T00:23:43.082Z,76.70
2023-02-03T00:27:49.008Z,76.80
2023-02-03T00:31:54.825Z,76.90
2023-02-03T00:36:06.507Z,77.10
2023-02-03T00:40:13.082Z,77.50
2023-02-03T00:44:18.539Z,77.50
2023-02-03T00:48:24.213Z,77.70
2023-02-03T00:52:29.685Z,77.80
2023-02-03T00:56:35.214Z,78.00
2023-02-03T01:00:40.676Z,78.40
2023-02-03T01:04:46.524Z,78.40
2023-02-03T01:08:52.433Z,78.60
2023-02-03T01:12:58.146Z,79.00
2023-02-03T01:17:03.688Z,78.80
2023-02-03T01:21:19.846Z,79.00
2023-02-03T01:25:25.307Z,79.20
2023-02-03T01:29:30.828Z,79.00
2023-02-03T01:33:36.665Z,79.00
2023-02-03T01:37:42.094Z,79.30
2023-02-03T01:41:47.614Z,79.20
2023-02-03T01:45:53.110Z,79.70
2023-02-03T01:50:13.730Z,80.00
2023-02-03T01:54:42.730Z,80.40
2023-02-03T01:58:49.967Z,81.80
2023-02-03T02:02:59.052Z,80.70
2023-02-03T02:07:06.416Z,80.80
2023-02-03T02:11:12.153Z,81.30
2023-02-03T02:15:19.299Z,82.50
2023-02-03T02:19:54.156Z,81.80
2023-02-03T02:24:32.301Z,84.70
2023-02-03T02:29:17.729Z,83.90
2023-02-03T02:34:06.892Z,86.00
2023-02-03T02:38:49.265Z,85.40
2023-02-03T02:43:43.366Z,84.70
2023-02-03T02:47:49.707Z,85.50
2023-02-03T02:51:58.011Z,83.80
2023-02-03T02:56:10.225Z,83.70
2023-02-03T03:00:17.668Z,83.60
2023-02-03T03:04:27.678Z,83.50
2023-02-03T03:09:05.462Z,83.60
2023-02-03T03:13:18.329Z,84.30
2023-02-03T03:17:51.988Z,83.30
2023-02-03T03:22:04.606Z,83.80
2023-02-03T03:26:39.677Z,83.10
2023-02-03T03:30:45.425Z,82.90
2023-02-03T03:34:51.795Z,82.90
2023-02-03T03:39:15.412Z,82.90
2023-02-03T03:43:29.921Z,82.70
2023-02-03T03:47:47.384Z,82.20
2023-02-03T03:51:59.129Z,81.90
2023-02-03T03:56:08.567Z,81.60
2023-02-03T04:00:19.324Z,81.40
2023-02-03T04:04:27.091Z,81.30
2023-02-03T04:08:32.692Z,81.20
2023-02-03T04:12:38.789Z,81.10
2023-02-03T04:16:44.990Z,81.00
2023-02-03T04:20:50.922Z,80.90
2023-02-03T04:24:58.958Z,81.60
2023-02-03T04:29:04.408Z,80.80
2023-02-03T04:33:09.851Z,81.00
2023-02-03T04:37:15.601Z,81.40
2023-02-03T04:41:21.079Z,81.50
2023-02-03T04:45:26.787Z,82.00
2023-02-03T04:49:32.228Z,81.90
2023-02-03T04:53:37.782Z,82.30
2023-02-03T04:57:43.394Z,83.10
2023-02-03T05:01:48.948Z,82.80
2023-02-03T05:05:57.475Z,82.60
2023-02-03T05:10:03.207Z,82.70
2023-02-03T05:14:08.641Z,82.80
2023-02-03T05:18:14.211Z,82.80
2023-02-03T05:22:19.881Z,82.90
2023-02-03T05:26:27.937Z,83.00
2023-02-03T05:30:34.659Z,83.20
2023-02-03T05:34:42.053Z,83.20
2023-02-03T05:38:48.027Z,83.50
2023-02-03T05:42:53.501Z,84.10
2023-02-03T05:47:00.161Z,83.40
2023-02-03T05:51:06.260Z,83.30
2023-02-03T05:55:11.933Z,83.30
2023-02-03T05:59:17.584Z,83.40
2023-02-03T06:03:23.276Z,83.50
2023-02-03T06:07:28.766Z,83.40
2023-02-03T06:11:36.053Z,83.50
2023-02-03T06:15:42.905Z,84.00
2023-02-03T06:19:48.451Z,83.30
2023-02-03T06:23:54.710Z,83.10
2023-02-03T06:28:00.442Z,83.20
2023-02-03T06:32:06.203Z,83.10
2023-02-03T06:36:11.921Z,83.10
2023-02-03T06:40:17.597Z,83.00
2023-02-03T06:44:23.200Z,83.00
2023-02-03T06:48:28.835Z,83.20
2023-02-03T06:52:35.384Z,83.30
2023-02-03T06:56:41.125Z,83.50
2023-02-03T07:00:46.679Z,83.40
2023-02-03T07:04:52.218Z,83.60
2023-02-03T07:09:00.670Z,83.40
2023-02-03T07:13:07.716Z,83.40
2023-02-03T07:17:14.407Z,83.30
2023-02-03T07:21:20.060Z,83.10
2023-02-03T07:25:26.349Z,83.00
2023-02-03T07:29:31.932Z,82.70
2023-02-03T07:33:39.156Z,82.80
2023-02-03T07:37:45.362Z,83.00
2023-02-03T07:41:50.851Z,83.40
2023-02-03T07:45:56.418Z,82.70
2023-02-03T07:50:01.989Z,82.60
2023-02-03T07:54:07.932Z,82.60
2023-02-03T07:58:13.481Z,80.30
2023-02-03T08:02:19.073Z,79.60
2023-02-03T08:06:24.595Z,76.50
2023-02-03T08:10:30.583Z,77.00
2023-02-03T08:14:36.322Z,76.60
2023-02-03T08:18:44.920Z,76.60
2023-02-03T08:22:50.502Z,75.70
2023-02-03T08:26:58.670Z,75.60
2023-02-03T08:31:12.859Z,75.20
2023-02-03T08:35:20.018Z,75.10
2023-02-03T08:39:25.590Z,75.40
2023-02-03T08:43:31.164Z,74.90
2023-02-03T08:47:40.086Z,74.90
2023-02-03T08:51:48.956Z,74.60
2023-02-03T08:55:54.956Z,74.40
2023-02-03T09:00:00.762Z,74.40
2023-02-03T09:04:08.621Z,73.60
2023-02-03T09:08:14.154Z,72.70
2023-02-03T09:12:20.727Z,71.40
2023-02-03T09:16:26.728Z,71.30
2023-02-03T09:20:32.629Z,70.20
2023-02-03T09:24:38.707Z,69.20
2023-02-03T09:28:44.853Z,67.90
2023-02-03T09:32:54.537Z,66.30
2023-02-03T09:37:00.111Z,66.00
2023-02-03T09:41:17.617Z,66.40
2023-02-03T09:45:31.530Z,66.40
2023-02-03T09:49:47.708Z,65.30
2023-02-03T09:54:04.932Z,65.70
2023-02-03T09:58:18.479Z,66.30
2023-02-03T10:02:54.293Z,66.10
2023-02-03T10:07:39.363Z,65.80
2023-02-03T10:12:16.318Z,65.80
2023-02-03T10:16:45.427Z,65.10
2023-02-03T10:20:57.807Z,64.60
2023-02-03T10:25:24.792Z,64.40
2023-02-03T10:29:43.414Z,63.90
2023-02-03T10:34:11.137Z,63.00
2023-02-03T10:38:37.449Z,64.00
2023-02-03T10:43:06.168Z,65.80
2023-02-03T10:47:36.852Z,65.80
2023-02-03T10:51:51.881Z,66.70
2023-02-03T10:56:15.114Z,68.20
2023-02-03T11:00:36.035Z,68.50
2023-02-03T11:04:42.552Z,68.60
2023-02-03T11:08:51.378Z,69.60
2023-02-03T11:13:24.624Z,70.30
2023-02-03T11:17:33.048Z,71.40
2023-02-03T11:21:38.557Z,71.30
2023-02-03T11:25:44.081Z,70.90
2023-02-03T11:29:55.065Z,70.00
2023-02-03T11:34:05.426Z,68.10
2023-02-03T11:38:30.834Z,68.20
2023-02-03T11:42:45.236Z,66.90
2023-02-03T11:46:56.646Z,66.10
2023-02-03T11:51:37.030Z,65.60
2023-02-03T11:56:20.127Z,65.50
2023-02-03T12:00:51.137Z,65.10
2023-02-03T12:05:34.289Z,64.00
2023-02-03T12:10:13.227Z,63.60
2023-02-03T12:14:44.847Z,63.20
2023-02-03T12:19:08.259Z,62.50
2023-02-03T12:23:44.071Z,62.90
2023-02-03T12:28:32.249Z,62.30
2023-02-03T12:32:55.371Z,62.50
2023-02-03T12:37:15.605Z,62.80
2023-02-03T12:41:36.378Z,63.80
2023-02-03T12:45:55.967Z,64.70
2023-02-03T12:50:34.263Z,65.80
2023-02-03T12:55:16.507Z,67.20
2023-02-03T12:59:30.108Z,69.10
2023-02-03T13:03:52.031Z,69.40
2023-02-03T13:08:30.001Z,69.80
2023-02-03T13:12:52.825Z,70.30
2023-02-03T13:17:27.685Z,70.30
2023-02-03T13:21:33.299Z,70.40
2023-02-03T13:26:12.706Z,69.80
2023-02-03T13:30:57.704Z,70.00
2023-02-03T13:35:33.971Z,69.20
2023-02-03T13:39:54.056Z,69.80
2023-02-03T13:44:00.133Z,69.10
2023-02-03T13:48:16.704Z,69.00
2023-02-03T13:52:57.574Z,68.20
2023-02-03T13:57:21.429Z,67.20
2023-02-03T14:01:36.840Z,67.10
2023-02-03T14:05:52.281Z,66.10
2023-02-03T14:10:15.622Z,65.90
2023-02-03T14:14:21.796Z,66.10
2023-02-03T14:18:45.060Z,66.20
2023-02-03T14:22:53.202Z,66.00
2023-02-03T14:27:00.981Z,66.00
2023-02-03T14:31:16.962Z,65.40
2023-02-03T14:35:42.400Z,64.90
2023-02-03T14:40:07.498Z,64.10
2023-02-03T14:45:08.786Z,63.60
2023-02-03T14:49:26.688Z,63.90
2023-02-03T14:53:57.260Z,63.50
2023-02-03T14:58:14.243Z,63.80
2023-02-03T15:02:26.049Z,64.10
2023-02-03T15:06:48.463Z,64.00
2023-02-03T15:10:54.493Z,63.70
2023-02-03T15:15:33.269Z,64.00
2023-02-03T15:19:42.459Z,64.30
2023-02-03T15:23:52.012Z,64.40
2023-02-03T15:28:21.741Z,65.10
2023-02-03T15:32:37.933Z,66.40
2023-02-03T15:36:52.352Z,66.60
2023-02-03T15:41:01.982Z,67.10
2023-02-03T15:45:23.497Z,67.60
2023-02-03T15:49:36.162Z,68.50
2023-02-03T15:53:57.997Z,69.70
2023-02-03T15:58:04.649Z,71.30
2023-02-03T16:02:22.968Z,71.10
2023-02-03T16:06:30.500Z,72.00
2023-02-03T16:10:36.224Z,72.20
2023-02-03T16:14:44.653Z,72.70
2023-02-03T16:18:54.343Z,73.40
2023-02-03T16:23:16.904Z,73.60
2023-02-03T16:27:28.528Z,74.10
2023-02-03T16:32:03.121Z,74.00
2023-02-03T16:36:32.952Z,74.60
2023-02-03T16:40:57.816Z,74.60
2023-02-03T16:45:25.238Z,74.50
2023-02-03T16:49:50.794Z,74.80
2023-02-03T16:53:56.295Z,75.20
2023-02-03T16:58:01.811Z,75.40
2023-02-03T17:02:08.009Z,75.40
2023-02-03T17:06:15.071Z,75.30
2023-02-03T17:10:20.717Z,75.50
2023-02-03T17:14:31.094Z,75.40
2023-02-03T17:18:36.835Z,75.00
2023-02-03T17:28:28.243Z,75.50
2023-02-03T17:32:33.691Z,74.80
2023-02-03T17:36:39.316Z,74.60
2023-02-03T17:53:57.757Z,74.40
2023-02-03T17:58:03.942Z,73.80
2023-02-03T18:02:10.389Z,73.80
2023-02-03T18:06:18.965Z,73.80
2023-02-03T18:10:24.501Z,73.20
2023-02-03T18:14:30.219Z,73.20
2023-02-03T18:18:35.936Z,73.00
2023-02-03T18:22:41.564Z,73.10
2023-02-03T18:26:50.372Z,73.20
2023-02-03T18:31:08.994Z,73.30
2023-02-03T18:35:17.177Z,73.60
2023-02-03T18:39:22.683Z,73.40
2023-02-03T18:43:28.333Z,73.80
2023-02-03T18:47:35.341Z,74.00
2023-02-03T18:51:40.831Z,74.40
2023-02-03T18:55:47.627Z,74.80
2023-02-03T18:59:53.153Z,76.00
2023-02-03T19:04:01.079Z,75.70
2023-02-03T19:08:07.439Z,76.10
2023-02-03T19:12:13.373Z,76.50
2023-02-03T19:16:19.147Z,76.90
2023-02-03T19:20:24.706Z,76.90
2023-02-03T19:24:30.258Z,76.70
2023-02-03T19:28:35.921Z,75.80
2023-02-03T19:32:41.563Z,75.20
2023-02-03T19:36:47.283Z,75.00
2023-02-03T19:40:52.841Z,74.70
2023-02-03T19:44:58.326Z,73.80
2023-02-03T19:49:13.085Z,73.40
2023-02-03T19:53:18.749Z,73.00
2023-02-03T19:57:24.188Z,72.10
2023-02-03T20:01:30.083Z,71.70
2023-02-03T20:05:36.324Z,71.50
2023-02-03T20:09:41.939Z,71.00
2023-02-03T20:13:47.964Z,70.70
2023-02-03T20:17:54.570Z,70.50
2023-02-03T20:22:00.911Z,69.90
2023-02-03T20:26:14.146Z,69.80
2023-02-03T20:30:19.784Z,69.90
2023-02-03T20:34:27.470Z,69.70
2023-02-03T20:38:33.000Z,69.60
2023-02-03T20:42:38.544Z,68.70
2023-02-03T20:46:44.527Z,68.30
2023-02-03T20:50:50.265Z,68.40
2023-02-03T20:54:55.846Z,67.40
2023-02-03T20:59:01.290Z,67.70
2023-02-03T21:03:50.105Z,67.80
2023-02-03T21:07:55.698Z,67.00
2023-02-03T21:12:01.215Z,67.60
2023-02-03T21:16:25.267Z,67.40
2023-02-03T21:20:32.537Z,66.90
2023-02-03T21:24:40.001Z,67.60
2023-02-03T21:28:49.905Z,67.70
2023-02-03T21:32:55.472Z,67.80
2023-02-03T21:37:22.769Z,67.80
2023-02-03T21:41:34.351Z,68.00
2023-02-03T21:45:43.806Z,67.90
2023-02-03T21:49:49.386Z,67.90
2023-02-03T21:53:59.556Z,68.30
2023-02-03T21:58:22.610Z,68.20
2023-02-03T22:02:56.528Z,67.80
2023-02-03T22:07:02.154Z,68.00
2023-02-03T22:11:08.221Z,68.00
2023-02-03T22:15:13.828Z,68.40
2023-02-03T22:19:19.429Z,68.70
2023-02-03T22:23:25.004Z,68.80
2023-02-03T22:27:31.382Z,68.90
2023-02-03T22:31:36.993Z,69.20
2023-02-03T22:35:42.816Z,69.20
2023-02-03T22:39:48.302Z,69.60
2023-02-03T22:43:53.950Z,69.50
2023-02-03T22:48:00.342Z,69.80
2023-02-03T22:52:05.849Z,69.90
2023-02-03T22:56:11.410Z,70.30
2023-02-03T23:00:24.628Z,71.00
2023-02-03T23:04:30.168Z,70.90
2023-02-03T23:08:35.702Z,70.80
2023-02-03T23:12:41.306Z,70.90
2023-02-03T23:16:46.878Z,71.00
2023-02-03T23:20:52.328Z,71.00
2023-02-03T23:24:57.881Z,71.80
2023-02-03T23:29:03.573Z,71.20
2023-02-03T23:33:09.057Z,71.30
2023-02-03T23:37:14.597Z,71.40
2023-02-03T23:41:20.048Z,71.10
2023-02-03T23:45:25.713Z,71.00
2023-02-03T23:49:31.464Z,70.50
2023-02-03T23:53:37.031Z,69.70
2023-02-03T23:57:43.025Z,69.00
